Time;durP1;ratioP1;P1;durP2;ratioP2;P2;SDS_P1;SDS_P2;PMS_P1;PMS_P2;Temp;Humidity;BMP_temperature;BMP_pressure;BME280_temperature;BME280_humidity;BME280_pressure;Samples;Min_cycle;Max_cycle;Signal;HPM_P1;HPM_P2
2021/01/16 00:00:56;;;;;;;7.20;2.58;;;1.60;69.20;;;;;;5051355;28;20021;-70
2021/01/16 00:03:22;;;;;;;3.78;2.15;;;1.60;68.00;;;;;;5071893;28;20124;-70
2021/01/16 00:05:48;;;;;;;6.88;3.05;;;1.60;68.40;;;;;;5071154;28;20012;-70
2021/01/16 00:08:23;;;;;;;6.55;2.45;;;1.60;68.60;;;;;;5052241;28;20094;-70
2021/01/16 00:10:52;;;;;;;2.35;1.60;;;1.60;67.50;;;;;;5051111;28;20021;-71
2021/01/16 00:13:19;;;;;;;4.28;2.20;;;1.60;66.70;;;;;;5062476;28;20086;-71
2021/01/16 00:15:46;;;;;;;4.65;1.83;;;1.60;67.40;;;;;;5051904;28;20388;-70
2021/01/16 00:18:15;;;;;;;5.47;2.80;;;1.60;66.30;;;;;;5058027;28;20036;-70
2021/01/16 00:20:43;;;;;;;3.33;2.05;;;1.70;66.90;;;;;;5052551;28;20420;-70
2021/01/16 00:23:09;;;;;;;3.72;2.28;;;1.60;67.10;;;;;;5068755;28;20492;-71
2021/01/16 00:25:35;;;;;;;6.82;2.80;;;1.60;67.70;;;;;;5071290;28;20051;-70
2021/01/16 00:28:01;;;;;;;3.72;2.10;;;1.70;67.30;;;;;;5052608;28;20525;-70
2021/01/16 00:30:29;;;;;;;2.95;2.10;;;1.70;66.20;;;;;;5051684;28;20056;-70
2021/01/16 00:32:56;;;;;;;4.15;2.38;;;1.60;65.40;;;;;;5066952;28;20062;-70
2021/01/16 00:35:22;;;;;;;3.78;2.30;;;1.70;66.80;;;;;;5070860;28;20025;-71
2021/01/16 00:37:49;;;;;;;4.00;2.30;;;1.70;67.80;;;;;;5065910;28;20028;-71
2021/01/16 00:40:21;;;;;;;5.38;2.45;;;1.80;67.90;;;;;;5070492;28;20383;-71
2021/01/16 00:42:50;;;;;;;3.90;2.42;;;1.80;67.40;;;;;;5052508;28;20036;-70
2021/01/16 00:45:16;;;;;;;3.60;2.15;;;1.90;67.90;;;;;;5051173;28;20056;-70
2021/01/16 00:47:42;;;;;;;5.13;2.60;;;1.90;67.50;;;;;;5064305;28;20032;-70
2021/01/16 00:50:10;;;;;;;4.85;2.80;;;1.90;67.40;;;;;;5070998;28;20530;-70
2021/01/16 00:52:36;;;;;;;3.13;1.85;;;1.90;67.80;;;;;;5055825;28;20068;-71
2021/01/16 00:55:04;;;;;;;3.42;2.22;;;1.90;68.20;;;;;;5051049;28;20086;-71
2021/01/16 00:57:30;;;;;;;6.05;2.65;;;1.90;67.60;;;;;;5062385;28;20036;-71
2021/01/16 00:59:56;;;;;;;3.90;2.22;;;1.90;67.40;;;;;;5070178;28;20025;-71
2021/01/16 01:02:22;;;;;;;5.55;2.60;;;1.90;68.40;;;;;;5052912;28;20079;-71
2021/01/16 01:04:48;;;;;;;4.30;2.72;;;1.90;68.50;;;;;;5066524;28;20056;-71
2021/01/16 01:07:14;;;;;;;3.65;2.30;;;2.00;69.00;;;;;;5054637;28;20032;-71
2021/01/16 01:09:44;;;;;;;4.22;2.97;;;1.90;67.30;;;;;;5055184;28;20035;-70
2021/01/16 01:12:12;;;;;;;3.47;2.38;;;1.90;67.80;;;;;;5053640;28;20072;-71
2021/01/16 01:14:38;;;;;;;4.10;2.65;;;1.90;68.30;;;;;;5062117;28;20025;-71
2021/01/16 01:17:14;;;;;;;5.13;2.88;;;2.00;68.20;;;;;;5060620;28;20028;-71
2021/01/16 01:19:39;;;;;;;6.30;2.53;;;2.00;68.40;;;;;;5070306;28;20102;-70
2021/01/16 01:22:05;;;;;;;4.30;2.63;;;2.00;68.00;;;;;;5067900;28;20528;-70
2021/01/16 01:24:30;;;;;;;4.97;2.40;;;2.00;67.70;;;;;;5054459;28;20039;-71
2021/01/16 01:26:56;;;;;;;4.70;2.60;;;2.10;68.20;;;;;;5057492;28;20033;-71
2021/01/16 01:29:21;;;;;;;5.03;2.33;;;2.10;68.10;;;;;;5070929;28;20146;-71
2021/01/16 01:31:47;;;;;;;4.93;2.60;;;2.20;68.40;;;;;;5056496;28;20041;-71
2021/01/16 01:34:12;;;;;;;5.72;2.80;;;2.20;68.30;;;;;;5050390;28;20061;-71
2021/01/16 01:36:38;;;;;;;4.78;2.63;;;2.30;68.10;;;;;;5049767;28;20033;-71
2021/01/16 01:39:04;;;;;;;3.80;2.42;;;2.30;68.00;;;;;;5053324;28;20095;-71
2021/01/16 01:41:30;;;;;;;4.55;2.65;;;2.30;68.00;;;;;;5057668;28;20027;-70
2021/01/16 01:43:55;;;;;;;6.53;2.63;;;2.30;67.70;;;;;;5055101;28;20041;-71
2021/01/16 01:46:21;;;;;;;3.70;2.63;;;2.30;67.00;;;;;;5055121;28;20027;-70
2021/01/16 01:48:47;;;;;;;4.32;2.47;;;2.30;67.30;;;;;;5054410;28;20082;-70
2021/01/16 01:51:14;;;;;;;5.28;3.30;;;2.30;67.40;;;;;;5054905;28;20044;-70
2021/01/16 01:53:41;;;;;;;4.22;2.60;;;2.40;67.50;;;;;;5070569;28;20530;-70
2021/01/16 01:56:09;;;;;;;4.18;2.90;;;2.40;67.00;;;;;;5054629;28;20044;-70
2021/01/16 01:58:37;;;;;;;4.32;2.72;;;2.40;67.10;;;;;;5054634;28;20033;-70
2021/01/16 02:01:02;;;;;;;3.92;2.75;;;2.40;67.20;;;;;;5052572;28;20029;-70
2021/01/16 02:03:31;;;;;;;5.00;3.17;;;2.40;67.50;;;;;;5073532;28;20549;-70
2021/01/16 02:05:57;;;;;;;5.13;3.08;;;2.40;67.50;;;;;;5069180;28;20109;-70
2021/01/16 02:08:23;;;;;;;4.35;2.78;;;2.40;67.40;;;;;;5053745;28;20560;-70
2021/01/16 02:10:49;;;;;;;5.50;2.90;;;2.30;67.10;;;;;;5053532;28;20523;-70
2021/01/16 02:13:14;;;;;;;3.47;2.60;;;2.30;67.80;;;;;;5071811;28;20033;-70
2021/01/16 02:16:20;;;;;;;4.40;2.70;;;2.30;67.50;;;;;;5073148;28;20472;-70
2021/01/16 02:18:46;;;;;;;4.55;2.70;;;2.30;67.50;;;;;;5054543;28;20482;-71
2021/01/16 02:21:19;;;;;;;4.68;2.58;;;2.20;67.20;;;;;;5060247;28;20370;-70
2021/01/16 02:23:48;;;;;;;4.28;3.03;;;2.30;67.90;;;;;;5058198;28;20021;-70
2021/01/16 02:26:16;;;;;;;5.63;3.38;;;2.20;67.60;;;;;;5055478;28;20021;-70
2021/01/16 02:28:56;;;;;;;4.97;2.80;;;2.20;68.10;;;;;;5074547;28;20017;-71
2021/01/16 02:31:27;;;;;;;5.32;3.40;;;2.20;68.20;;;;;;5066782;28;20041;-71
2021/01/16 02:33:54;;;;;;;5.97;3.58;;;2.30;68.40;;;;;;5054292;28;20466;-70
2021/01/16 02:36:53;;;;;;;4.70;3.35;;;2.20;68.80;;;;;;5068946;28;20397;-70
2021/01/16 02:39:28;;;;;;;5.80;3.05;;;2.30;68.80;;;;;;5053880;28;20501;-70
2021/01/16 02:41:58;;;;;;;5.00;3.55;;;2.30;67.90;;;;;;5053951;28;20029;-70
2021/01/16 02:44:36;;;;;;;6.53;3.47;;;2.30;68.60;;;;;;5057003;28;20052;-70
2021/01/16 02:47:32;;;;;;;4.95;3.08;;;2.20;68.90;;;;;;5071997;28;20447;-70
2021/01/16 02:50:05;;;;;;;;;;;2.30;69.50;;;;;;5061890;28;20041;-70
2021/01/16 02:52:34;;;;;;;4.63;3.03;;;2.30;69.10;;;;;;5052051;28;19935;-70
2021/01/16 02:55:01;;;;;;;8.10;3.65;;;2.30;69.30;;;;;;5053284;28;20076;-70
2021/01/16 02:57:27;;;;;;;5.88;3.30;;;2.20;69.30;;;;;;5053248;28;20061;-70
2021/01/16 02:59:52;;;;;;;5.90;3.67;;;2.20;69.80;;;;;;5060630;28;20098;-70
2021/01/16 03:02:18;;;;;;;5.20;3.15;;;2.20;69.90;;;;;;5067768;28;20017;-70
2021/01/16 03:04:45;;;;;;;5.68;3.67;;;2.20;71.00;;;;;;5062304;28;20017;-70
2021/01/16 03:07:14;;;;;;;5.10;3.47;;;2.20;71.10;;;;;;5073151;28;20057;-70
2021/01/16 03:09:40;;;;;;;7.22;4.18;;;2.20;71.20;;;;;;5063434;28;20428;-71
2021/01/16 03:12:10;;;;;;;8.32;3.45;;;2.10;71.40;;;;;;5051648;28;20033;-71
2021/01/16 03:14:38;;;;;;;8.55;3.60;;;2.10;71.70;;;;;;5052642;28;20048;-72
2021/01/16 03:17:10;;;;;;;5.70;3.40;;;2.20;72.10;;;;;;5052984;28;20127;-69
2021/01/16 03:19:39;;;;;;;5.85;3.25;;;2.10;72.30;;;;;;5058687;28;20056;-70
2021/01/16 03:22:16;;;;;;;6.68;3.75;;;2.20;72.30;;;;;;5073198;28;20033;-71
2021/01/16 03:24:42;;;;;;;6.63;3.10;;;2.20;72.40;;;;;;5053090;28;20037;-70
2021/01/16 03:27:07;;;;;;;6.78;3.45;;;2.20;72.60;;;;;;5052200;28;20040;-71
2021/01/16 03:29:33;;;;;;;5.40;3.40;;;2.20;72.80;;;;;;5057806;28;20024;-71
2021/01/16 03:31:58;;;;;;;7.10;3.85;;;2.20;73.00;;;;;;5062815;28;20048;-71
2021/01/16 03:34:24;;;;;;;6.57;3.60;;;2.20;73.20;;;;;;5053047;28;20061;-71
2021/01/16 03:36:49;;;;;;;5.95;3.53;;;2.20;73.40;;;;;;5052547;28;20416;-71
2021/01/16 03:39:15;;;;;;;6.20;3.70;;;2.20;73.60;;;;;;5051241;28;20124;-70
2021/01/16 03:41:40;;;;;;;7.43;3.75;;;2.30;73.70;;;;;;5051446;28;20029;-70
2021/01/16 03:44:06;;;;;;;6.47;3.83;;;2.30;73.90;;;;;;5054041;28;20076;-70
2021/01/16 03:46:31;;;;;;;6.90;3.53;;;2.30;74.20;;;;;;5065086;28;20064;-71
2021/01/16 03:48:57;;;;;;;5.15;3.42;;;2.30;74.50;;;;;;5051822;28;20481;-71
2021/01/16 03:51:23;;;;;;;5.97;3.60;;;2.30;74.50;;;;;;5068123;28;20033;-70
2021/01/16 03:53:49;;;;;;;7.13;3.85;;;2.30;74.80;;;;;;5052108;28;20036;-70
2021/01/16 03:56:14;;;;;;;5.82;3.45;;;2.30;75.50;;;;;;5070805;28;20025;-70
2021/01/16 03:58:40;;;;;;;6.85;3.75;;;2.20;75.70;;;;;;5072359;28;20075;-70
2021/01/16 04:01:05;;;;;;;6.03;3.40;;;2.20;76.10;;;;;;5050800;28;20037;-70
2021/01/16 04:03:31;;;;;;;6.22;3.42;;;2.20;76.50;;;;;;5052583;28;20040;-71
2021/01/16 04:05:56;;;;;;;5.80;3.53;;;2.20;76.70;;;;;;5051405;28;20024;-71
2021/01/16 04:08:22;;;;;;;6.20;3.50;;;2.20;77.00;;;;;;5052013;28;20343;-71
2021/01/16 04:10:48;;;;;;;6.57;4.05;;;2.30;77.20;;;;;;5066396;28;20052;-70
2021/01/16 04:13:13;;;;;;;7.25;3.80;;;2.30;77.50;;;;;;5072249;28;20048;-71
2021/01/16 04:15:39;;;;;;;5.60;3.90;;;2.30;77.60;;;;;;5055531;28;20025;-70
2021/01/16 04:18:04;;;;;;;5.63;3.88;;;2.30;78.00;;;;;;5051700;28;20032;-70
2021/01/16 04:20:30;;;;;;;6.68;3.67;;;2.20;78.50;;;;;;5063713;28;20043;-70
2021/01/16 04:22:55;;;;;;;6.72;3.88;;;2.20;78.80;;;;;;5071371;28;20032;-70
2021/01/16 04:25:21;;;;;;;7.05;4.45;;;2.20;79.50;;;;;;5070030;28;20039;-71
2021/01/16 04:27:46;;;;;;;7.75;4.00;;;2.10;79.30;;;;;;5069776;28;20040;-70
2021/01/16 04:30:12;;;;;;;6.95;3.53;;;2.10;79.60;;;;;;5055864;28;20029;-71
2021/01/16 04:32:37;;;;;;;7.85;3.95;;;2.20;79.80;;;;;;5055623;28;20123;-70
2021/01/16 04:35:03;;;;;;;6.85;3.67;;;2.20;80.20;;;;;;5054684;28;20021;-71
2021/01/16 04:37:29;;;;;;;6.20;3.40;;;2.20;80.30;;;;;;5067253;28;20032;-71
2021/01/16 04:39:54;;;;;;;9.35;4.03;;;2.20;80.50;;;;;;5064918;28;20046;-71
2021/01/16 04:42:20;;;;;;;6.18;3.95;;;2.30;80.50;;;;;;5054351;28;20027;-72
2021/01/16 04:44:48;;;;;;;7.38;4.00;;;2.30;81.00;;;;;;5055082;28;20036;-70
2021/01/16 04:47:23;;;;;;;8.13;4.05;;;2.20;81.10;;;;;;5055843;28;20074;-70
2021/01/16 04:49:50;;;;;;;7.03;4.22;;;2.20;81.50;;;;;;5062464;28;20020;-71
2021/01/16 04:52:24;;;;;;;5.90;3.75;;;2.30;81.50;;;;;;5062980;28;20183;-71
2021/01/16 04:54:53;;;;;;;7.65;4.13;;;2.30;81.40;;;;;;5054479;28;20378;-71
2021/01/16 04:57:19;;;;;;;6.53;3.80;;;2.30;81.30;;;;;;5060193;28;20037;-71
2021/01/16 04:59:45;;;;;;;6.38;3.88;;;2.30;81.40;;;;;;5057842;28;20143;-69
2021/01/16 05:02:14;;;;;;;6.95;4.22;;;2.40;81.40;;;;;;5054161;28;20047;-68
2021/01/16 05:04:40;;;;;;;7.20;4.03;;;2.40;81.40;;;;;;5060729;28;20394;-69
2021/01/16 05:07:09;;;;;;;7.13;3.88;;;2.40;81.50;;;;;;5075439;28;20063;-69
2021/01/16 05:09:40;;;;;;;7.68;3.95;;;2.40;81.60;;;;;;5065544;28;20049;-69
2021/01/16 05:12:29;;;;;;;6.65;3.83;;;2.40;81.80;;;;;;5053284;28;20036;-70
2021/01/16 05:15:28;;;;;;;6.47;4.03;;;2.50;82.00;;;;;;5061364;28;20043;-68
2021/01/16 05:18:07;;;;;;;5.85;3.75;;;2.40;82.20;;;;;;5071366;28;20068;-69
2021/01/16 05:20:33;;;;;;;7.80;4.07;;;2.40;82.10;;;;;;5069385;28;20365;-68
2021/01/16 05:23:17;;;;;;;7.15;4.28;;;2.40;82.40;;;;;;5052598;28;20083;-69
2021/01/16 05:25:49;;;;;;;8.23;4.85;;;2.40;82.30;;;;;;5051191;28;20027;-69
2021/01/16 05:28:17;;;;;;;6.97;3.75;;;2.40;82.60;;;;;;5051167;28;20029;-69
2021/01/16 05:30:57;;;;;;;9.70;4.35;;;2.40;82.70;;;;;;5065965;28;20028;-68
2021/01/16 05:33:25;;;;;;;8.77;4.35;;;2.40;83.00;;;;;;5070953;28;20048;-69
2021/01/16 05:35:53;;;;;;;7.60;4.13;;;2.40;83.00;;;;;;5052148;28;20377;-72
2021/01/16 05:38:36;;;;;;;6.43;3.92;;;2.30;83.20;;;;;;5048794;28;20060;-70
2021/01/16 05:41:07;;;;;;;7.30;3.97;;;2.40;83.30;;;;;;5066644;28;20020;-69
2021/01/16 05:43:38;;;;;;;6.45;4.07;;;2.40;83.40;;;;;;5070898;28;20055;-70
2021/01/16 05:46:08;;;;;;;7.35;4.47;;;2.40;83.30;;;;;;5049774;28;20040;-70
2021/01/16 05:48:34;;;;;;;8.48;4.72;;;2.40;83.40;;;;;;5051104;28;20041;-70
2021/01/16 05:51:00;;;;;;;8.52;4.70;;;2.50;83.40;;;;;;5050061;28;20091;-70
2021/01/16 05:53:27;;;;;;;8.23;4.47;;;2.50;83.60;;;;;;5055352;28;20045;-71
2021/01/16 05:55:54;;;;;;;11.60;4.43;;;2.50;83.60;;;;;;5067194;28;20024;-71
2021/01/16 05:58:20;;;;;;;9.10;4.45;;;2.50;83.80;;;;;;5069831;28;20036;-71
2021/01/16 06:00:51;;;;;;;10.27;5.47;;;2.50;84.00;;;;;;5052876;28;20037;-71
2021/01/16 06:03:18;;;;;;;9.10;5.00;;;2.40;84.10;;;;;;5050590;28;20033;-71
2021/01/16 06:05:51;;;;;;;9.43;4.65;;;2.40;84.10;;;;;;5066180;28;20156;-71
2021/01/16 06:08:20;;;;;;;8.00;4.43;;;2.40;84.10;;;;;;5071771;28;20028;-71
2021/01/16 06:10:53;;;;;;;8.98;5.00;;;2.50;84.10;;;;;;5055656;28;20049;-70
2021/01/16 06:13:24;;;;;;;8.93;5.40;;;2.40;84.60;;;;;;5051276;28;20087;-70
2021/01/16 06:15:52;;;;;;;8.55;4.28;;;2.40;85.10;;;;;;5066664;28;20050;-71
2021/01/16 06:18:28;;;;;;;9.35;5.53;;;2.50;84.60;;;;;;5069650;28;20060;-70
2021/01/16 06:20:55;;;;;;;8.65;4.78;;;2.50;85.00;;;;;;5069983;28;20025;-71
2021/01/16 06:23:24;;;;;;;9.57;5.07;;;2.50;84.80;;;;;;5060500;28;20057;-70
2021/01/16 06:25:52;;;;;;;8.63;5.00;;;2.50;84.90;;;;;;5071787;28;20028;-70
2021/01/16 06:28:20;;;;;;;9.45;5.28;;;2.50;85.00;;;;;;5075941;28;20064;-70
2021/01/16 06:30:51;;;;;;;9.18;5.35;;;2.50;85.10;;;;;;5058961;28;20083;-71
2021/01/16 06:33:22;;;;;;;9.57;5.15;;;2.50;84.90;;;;;;5056650;28;20064;-73
2021/01/16 06:36:02;;;;;;;8.48;4.63;;;2.50;84.90;;;;;;5066354;28;20032;-71
2021/01/16 06:38:30;;;;;;;8.80;5.18;;;2.60;84.90;;;;;;5058876;28;20065;-71
2021/01/16 06:41:08;;;;;;;9.68;5.35;;;2.60;84.90;;;;;;5068950;28;20119;-70
2021/01/16 06:43:38;;;;;;;7.47;5.00;;;2.60;85.00;;;;;;5053735;28;20132;-70
2021/01/16 06:46:08;;;;;;;11.40;5.50;;;2.60;85.00;;;;;;5071261;28;20036;-70
2021/01/16 06:48:44;;;;;;;10.40;5.97;;;2.60;85.20;;;;;;5056868;28;20200;-70
2021/01/16 06:51:31;;;;;;;10.25;5.32;;;2.50;85.60;;;;;;5070109;28;20078;-70
2021/01/16 06:54:04;;;;;;;8.55;4.97;;;2.60;85.50;;;;;;5053707;28;20033;-70
2021/01/16 06:56:31;;;;;;;8.60;5.40;;;2.60;85.60;;;;;;5072774;28;20031;-70
2021/01/16 06:58:58;;;;;;;8.18;4.53;;;2.60;85.90;;;;;;5070897;28;20047;-70
2021/01/16 07:01:31;;;;;;;9.07;5.30;;;2.60;85.60;;;;;;5053054;28;20041;-70
2021/01/16 07:03:59;;;;;;;7.68;4.80;;;2.70;85.80;;;;;;5053736;28;20037;-70
2021/01/16 07:06:24;;;;;;;9.07;5.18;;;2.70;85.60;;;;;;5072844;28;20028;-69
2021/01/16 07:08:51;;;;;;;10.75;5.07;;;2.70;85.60;;;;;;5071074;28;20393;-69
2021/01/16 07:11:16;;;;;;;9.00;5.22;;;2.60;85.40;;;;;;5071913;28;20025;-70
2021/01/16 07:13:42;;;;;;;10.02;5.82;;;2.70;85.50;;;;;;5068442;28;20043;-69
2021/01/16 07:16:08;;;;;;;10.52;6.25;;;2.70;85.10;;;;;;5053543;28;20017;-70
2021/01/16 07:18:34;;;;;;;8.82;5.10;;;2.60;85.00;;;;;;5053402;28;20116;-70
2021/01/16 07:21:01;;;;;;;9.63;5.43;;;2.60;84.80;;;;;;5069244;28;20115;-70
2021/01/16 07:23:27;;;;;;;9.30;5.03;;;2.50;84.80;;;;;;5054471;28;20040;-70
2021/01/16 07:25:53;;;;;;;11.02;5.72;;;2.50;84.90;;;;;;5068310;28;20029;-70
2021/01/16 07:28:21;;;;;;;9.20;5.07;;;2.50;84.90;;;;;;5052212;28;20032;-70
2021/01/16 07:30:49;;;;;;;8.07;5.07;;;2.50;84.90;;;;;;5051756;28;20044;-71
2021/01/16 07:33:15;;;;;;;8.65;4.95;;;2.50;84.80;;;;;;5055268;28;20098;-71
2021/01/16 07:35:47;;;;;;;11.35;6.20;;;2.60;84.80;;;;;;5067299;28;20016;-69
2021/01/16 07:38:15;;;;;;;9.30;5.72;;;2.60;84.80;;;;;;5061330;28;20037;-69
2021/01/16 07:40:43;;;;;;;11.15;6.35;;;2.60;84.50;;;;;;5065500;28;20024;-69
2021/01/16 07:43:38;;;;;;;10.27;5.55;;;2.60;84.60;;;;;;5054189;28;20033;-68
2021/01/16 07:46:09;;;;;;;11.85;5.45;;;2.60;84.50;;;;;;5070200;28;20032;-68
2021/01/16 07:48:49;;;;;;;10.15;6.43;;;2.50;84.50;;;;;;5072395;28;20477;-69
2021/01/16 07:51:17;;;;;;;9.55;5.47;;;2.50;84.80;;;;;;5060525;28;20031;-69
2021/01/16 07:53:43;;;;;;;12.07;6.32;;;2.50;84.90;;;;;;5087282;28;20372;-69
2021/01/16 07:56:23;;;;;;;10.98;6.60;;;2.60;84.90;;;;;;5053405;28;20107;-69
2021/01/16 07:59:21;;;;;;;11.85;7.00;;;2.60;84.80;;;;;;5052711;28;20384;-69
2021/01/16 08:02:18;;;;;;;8.60;5.70;;;2.60;84.80;;;;;;5052241;28;20028;-69
2021/01/16 08:04:58;;;;;;;11.00;6.38;;;2.60;84.90;;;;;;5053491;28;20458;-69
2021/01/16 08:07:51;;;;;;;10.90;6.60;;;2.60;84.90;;;;;;5052374;28;20508;-69
2021/01/16 08:10:18;;;;;;;9.75;6.22;;;2.50;84.80;;;;;;5030230;28;20546;-69
2021/01/16 08:12:47;;;;;;;10.88;6.20;;;2.40;85.20;;;;;;5056364;28;20070;-69
2021/01/16 08:15:17;;;;;;;12.70;7.13;;;2.50;85.40;;;;;;5058911;28;20035;-69
2021/01/16 08:17:45;;;;;;;27.17;7.45;;;2.40;85.60;;;;;;5066218;28;20392;-68
2021/01/16 08:20:27;;;;;;;10.52;6.10;;;2.50;86.00;;;;;;5065639;28;20505;-68
2021/01/16 08:22:56;;;;;;;12.80;6.50;;;2.50;86.00;;;;;;5083086;28;20392;-68
2021/01/16 08:25:25;;;;;;;12.23;6.70;;;2.60;86.00;;;;;;5064825;28;20570;-68
2021/01/16 08:27:53;;;;;;;11.88;5.95;;;2.60;85.90;;;;;;5051985;28;20029;-68
2021/01/16 08:30:21;;;;;;;10.68;7.03;;;2.60;85.90;;;;;;5051902;28;20029;-68
2021/01/16 08:32:58;;;;;;;12.02;7.20;;;2.60;86.00;;;;;;5051604;28;20044;-68
2021/01/16 08:35:43;;;;;;;12.00;6.57;;;2.60;85.80;;;;;;5050795;28;20500;-68
2021/01/16 08:38:15;;;;;;;10.73;6.55;;;2.70;85.90;;;;;;5050654;28;20418;-68
2021/01/16 08:40:42;;;;;;;10.93;6.50;;;2.70;85.90;;;;;;5051382;28;20500;-65
2021/01/16 08:43:07;;;;;;;12.10;6.70;;;2.70;85.90;;;;;;5060481;28;20035;-68
2021/01/16 08:45:33;;;;;;;11.30;6.68;;;2.70;85.90;;;;;;5062046;28;20040;-67
2021/01/16 08:48:00;;;;;;;11.45;6.57;;;2.70;85.80;;;;;;5052136;28;20417;-69
2021/01/16 08:50:31;;;;;;;12.95;7.15;;;2.80;85.90;;;;;;5064005;28;20370;-69
2021/01/16 08:52:57;;;;;;;12.00;6.43;;;2.80;85.80;;;;;;5059827;28;20040;-68
2021/01/16 08:55:27;;;;;;;13.05;6.95;;;2.70;85.70;;;;;;5051047;28;20492;-69
2021/01/16 08:58:09;;;;;;;11.25;6.75;;;2.70;85.80;;;;;;5061249;28;20032;-69
2021/01/16 09:00:39;;;;;;;13.50;7.03;;;2.80;85.80;;;;;;5055101;28;20025;-68
2021/01/16 09:03:19;;;;;;;14.65;6.93;;;2.80;85.70;;;;;;5050074;28;20481;-67
2021/01/16 09:05:45;;;;;;;12.13;6.90;;;2.80;85.60;;;;;;5061524;28;20119;-68
2021/01/16 09:08:22;;;;;;;10.05;6.35;;;2.80;85.70;;;;;;5055262;28;20403;-67
2021/01/16 09:10:50;;;;;;;12.23;6.88;;;2.70;85.80;;;;;;5054005;28;20029;-67
2021/01/16 09:13:25;;;;;;;11.45;7.22;;;2.80;85.70;;;;;;5056778;28;20051;-67
2021/01/16 09:15:51;;;;;;;13.25;6.88;;;2.80;84.80;;;;;;5060584;28;20028;-67
2021/01/16 09:18:17;;;;;;;11.93;6.95;;;2.80;85.30;;;;;;5054998;28;20029;-67
2021/01/16 09:20:52;;;;;;;11.50;6.18;;;2.80;85.20;;;;;;5050658;28;20057;-67
2021/01/16 09:23:30;;;;;;;;;;;2.90;84.90;;;;;;5084365;28;20323;-69
2021/01/16 09:26:05;;;;;;;11.65;6.68;;;2.90;85.00;;;;;;5070970;28;19997;-68
2021/01/16 09:28:43;;;;;;;13.48;7.22;;;2.90;85.00;;;;;;5056594;28;20037;-68
2021/01/16 09:31:18;;;;;;;13.52;7.07;;;2.90;85.00;;;;;;5055653;28;20028;-68
2021/01/16 09:33:45;;;;;;;13.60;6.60;;;2.90;85.10;;;;;;5050411;28;20033;-69
2021/01/16 09:36:11;;;;;;;12.57;6.57;;;2.90;84.30;;;;;;5056740;28;20072;-68
2021/01/16 09:38:40;;;;;;;12.18;6.25;;;2.90;83.90;;;;;;5060352;28;20056;-68
2021/01/16 09:41:06;;;;;;;10.60;6.40;;;2.90;83.80;;;;;;5069173;28;20055;-67
2021/01/16 09:43:39;;;;;;;11.73;6.78;;;2.90;84.00;;;;;;5068019;28;20488;-67
2021/01/16 09:46:04;;;;;;;12.75;6.90;;;3.00;84.10;;;;;;5052138;28;20489;-66
2021/01/16 09:48:30;;;;;;;12.38;6.97;;;3.00;84.20;;;;;;5058950;28;20039;-66
2021/01/16 09:50:57;;;;;;;14.55;7.60;;;3.10;84.40;;;;;;5067740;28;20032;-65
2021/01/16 09:53:25;;;;;;;12.65;7.00;;;3.10;84.20;;;;;;5063015;28;20045;-65
2021/01/16 09:55:53;;;;;;;12.88;7.35;;;3.10;83.70;;;;;;5049309;28;20036;-65
2021/01/16 09:58:41;;;;;;;12.40;8.45;;;3.20;83.70;;;;;;5053289;28;20044;-66
2021/01/16 10:01:22;;;;;;;12.45;6.88;;;3.20;83.60;;;;;;5067117;28;20484;-66
2021/01/16 10:03:48;;;;;;;11.18;6.60;;;3.20;83.40;;;;;;5065512;28;20056;-66
2021/01/16 10:06:18;;;;;;;9.88;5.90;;;3.10;82.50;;;;;;5077102;28;20028;-66
2021/01/16 10:08:48;;;;;;;13.45;6.35;;;3.10;82.60;;;;;;5064238;28;20052;-66
2021/01/16 10:11:35;;;;;;;10.95;6.63;;;3.10;82.60;;;;;;5063160;28;20070;-66
2021/01/16 10:14:17;;;;;;;11.88;6.10;;;3.20;82.60;;;;;;5058974;28;20036;-66
2021/01/16 10:16:44;;;;;;;13.00;6.90;;;3.20;82.60;;;;;;5062052;28;20033;-67
2021/01/16 10:19:14;;;;;;;10.50;6.38;;;3.20;82.30;;;;;;5054958;28;20107;-66
2021/01/16 10:21:55;;;;;;;12.43;6.63;;;3.30;82.50;;;;;;5069531;28;20029;-67
2021/01/16 10:24:21;;;;;;;11.75;6.68;;;3.30;82.10;;;;;;5054154;28;20094;-68
2021/01/16 10:26:47;;;;;;;12.68;6.75;;;3.30;82.10;;;;;;5055083;28;20032;-67
2021/01/16 10:29:40;;;;;;;12.18;6.75;;;3.40;82.10;;;;;;5056672;28;20029;-67
2021/01/16 10:32:22;;;;;;;11.90;6.93;;;3.40;81.90;;;;;;5057010;28;20043;-68
2021/01/16 10:34:49;;;;;;;10.70;6.30;;;3.40;81.30;;;;;;5067009;28;20028;-68
2021/01/16 10:37:16;;;;;;;9.30;5.70;;;3.50;81.40;;;;;;5062321;28;20102;-68
2021/01/16 10:39:50;;;;;;;12.93;7.28;;;3.50;81.30;;;;;;5053863;28;20029;-68
2021/01/16 10:42:18;;;;;;;10.50;5.85;;;3.40;80.50;;;;;;5068591;28;20032;-68
2021/01/16 10:44:44;;;;;;;10.23;5.55;;;3.40;79.60;;;;;;5072367;28;20045;-68
2021/01/16 10:47:36;;;;;;;10.30;6.30;;;3.40;79.70;;;;;;5068358;28;20020;-67
2021/01/16 10:50:09;;;;;;;9.27;5.97;;;3.40;78.80;;;;;;5066786;28;20040;-67
2021/01/16 10:52:35;;;;;;;9.05;5.00;;;3.40;79.80;;;;;;5064297;28;20044;-67
2021/01/16 10:55:09;;;;;;;12.40;6.47;;;3.40;79.80;;;;;;5055839;28;20065;-68
2021/01/16 10:57:46;;;;;;;11.38;6.50;;;3.40;80.30;;;;;;5052168;28;20064;-68
2021/01/16 11:00:14;;;;;;;9.10;5.53;;;3.40;80.10;;;;;;5063971;28;20083;-68
2021/01/16 11:02:42;;;;;;;10.20;5.65;;;3.50;79.90;;;;;;5068518;28;20036;-69
2021/01/16 11:05:25;;;;;;;9.25;5.75;;;3.50;79.60;;;;;;5063402;28;20068;-68
2021/01/16 11:07:52;;;;;;;9.23;5.30;;;3.60;79.40;;;;;;5053688;28;20041;-67
2021/01/16 11:10:27;;;;;;;8.23;5.88;;;3.60;79.10;;;;;;5050848;28;20029;-68
2021/01/16 11:12:53;;;;;;;8.43;4.95;;;3.60;78.10;;;;;;5052216;28;20065;-68
2021/01/16 11:15:27;;;;;;;8.43;5.07;;;3.60;77.50;;;;;;5055805;28;20130;-68
2021/01/16 11:17:58;;;;;;;9.63;6.10;;;3.50;77.30;;;;;;5052746;28;20021;-68
2021/01/16 11:20:34;;;;;;;8.75;5.15;;;3.50;76.90;;;;;;5059553;28;20111;-68
2021/01/16 11:23:47;;;;;;;7.30;4.78;;;3.50;77.70;;;;;;5050630;28;20037;-68
2021/01/16 11:26:16;;;;;;;8.75;5.35;;;3.50;77.90;;;;;;4982020;28;20432;-68
2021/01/16 11:28:57;;;;;;;7.97;5.18;;;3.50;77.70;;;;;;4982000;28;20062;-67
2021/01/16 11:31:33;;;;;;;9.55;5.90;;;3.50;77.40;;;;;;5035808;28;20474;-68
2021/01/16 11:34:19;;;;;;;10.15;5.47;;;3.50;77.20;;;;;;5053858;28;20094;-67
2021/01/16 11:37:00;;;;;;;10.27;5.43;;;3.50;77.30;;;;;;5065303;28;20483;-67
2021/01/16 11:39:50;;;;;;;10.00;6.05;;;3.50;77.20;;;;;;5054587;28;20040;-68
2021/01/16 11:42:17;;;;;;;8.98;5.75;;;3.60;76.00;;;;;;5061102;28;20028;-67
2021/01/16 11:44:50;;;;;;;10.60;5.75;;;3.50;75.80;;;;;;5067502;28;20100;-69
2021/01/16 11:47:15;;;;;;;9.60;5.75;;;3.50;76.50;;;;;;5052822;28;20029;-69
2021/01/16 11:49:43;;;;;;;11.05;6.25;;;3.50;76.70;;;;;;5070008;28;20025;-68
2021/01/16 11:52:09;;;;;;;10.07;5.95;;;3.40;75.40;;;;;;5066277;28;20059;-68
2021/01/16 11:54:35;;;;;;;9.88;5.90;;;3.40;76.40;;;;;;5056603;28;20017;-67
2021/01/16 11:57:01;;;;;;;9.38;5.82;;;3.50;76.50;;;;;;5054066;28;20262;-68
2021/01/16 11:59:27;;;;;;;11.25;6.03;;;3.50;76.60;;;;;;5063651;28;20029;-67
2021/01/16 12:01:55;;;;;;;8.85;5.20;;;3.50;76.60;;;;;;5078012;28;20047;-68
2021/01/16 12:04:22;;;;;;;9.15;5.60;;;3.60;76.70;;;;;;5060141;28;20159;-68
2021/01/16 12:06:48;;;;;;;8.75;5.30;;;3.60;76.60;;;;;;5051010;28;20033;-67
2021/01/16 12:09:14;;;;;;;9.30;5.38;;;3.60;76.00;;;;;;5062645;28;20381;-68
2021/01/16 12:11:40;;;;;;;7.57;4.78;;;3.60;76.10;;;;;;5051680;28;20511;-68
2021/01/16 12:14:06;;;;;;;8.30;5.03;;;3.60;75.60;;;;;;5051862;28;20029;-68
2021/01/16 12:16:34;;;;;;;9.68;4.90;;;3.60;75.20;;;;;;5054122;28;20025;-68
2021/01/16 12:19:00;;;;;;;10.02;5.53;;;3.60;75.00;;;;;;5054620;28;20036;-67
2021/01/16 12:21:26;;;;;;;9.70;5.05;;;3.50;75.00;;;;;;5069995;28;20035;-67
2021/01/16 12:23:55;;;;;;;9.50;6.35;;;3.50;75.20;;;;;;5070045;28;20503;-68
2021/01/16 12:26:25;;;;;;;6.43;4.50;;;3.50;75.20;;;;;;5061549;28;20038;-69
2021/01/16 12:28:56;;;;;;;9.27;5.55;;;3.50;74.70;;;;;;5064898;28;20633;-68
2021/01/16 12:31:24;;;;;;;8.75;5.57;;;3.60;75.20;;;;;;5052360;28;20106;-68
2021/01/16 12:37:34;;;;;;;10.20;5.63;;;3.50;74.90;;;;;;5052631;28;20037;-68
2021/01/16 12:40:03;;;;;;;10.23;5.35;;;3.50;75.40;;;;;;5058730;28;20120;-68
2021/01/16 12:42:30;;;;;;;8.82;4.97;;;3.50;75.60;;;;;;5051387;28;20476;-69
2021/01/16 12:45:08;;;;;;;9.45;5.18;;;3.50;73.80;;;;;;5064104;28;20045;-69
2021/01/16 12:47:35;;;;;;;9.73;5.65;;;3.40;73.90;;;;;;5051908;28;20037;-69
2021/01/16 12:50:01;;;;;;;8.00;4.88;;;3.40;74.20;;;;;;5055379;28;20035;-68
2021/01/16 12:52:28;;;;;;;8.65;5.05;;;3.40;73.20;;;;;;5061682;28;20591;-69
2021/01/16 12:54:58;;;;;;;9.77;5.40;;;3.40;73.50;;;;;;5052147;28;20031;-68
2021/01/16 12:57:28;;;;;;;7.63;4.72;;;3.30;72.90;;;;;;5050867;28;20103;-66
2021/01/16 12:59:55;;;;;;;7.32;4.40;;;3.20;69.00;;;;;;5053610;28;20064;-68
2021/01/16 13:02:21;;;;;;;23.00;9.40;;;3.10;71.30;;;;;;5050900;28;20044;-67
2021/01/16 13:04:47;;;;;;;10.32;4.75;;;3.10;71.90;;;;;;5050202;28;20409;-67
2021/01/16 13:07:13;;;;;;;10.52;5.38;;;3.10;72.50;;;;;;5052283;28;20112;-67
2021/01/16 13:09:38;;;;;;;8.70;5.00;;;3.20;72.50;;;;;;5058264;28;20077;-67
2021/01/16 13:12:06;;;;;;;9.85;5.57;;;3.20;71.80;;;;;;5059619;28;20049;-67
2021/01/16 13:14:52;;;;;;;11.40;5.50;;;3.20;70.30;;;;;;5050176;28;20505;-66